Time;durP1;ratioP1;P1;durP2;ratioP2;P2;SDS_P1;SDS_P2;PMS_P1;PMS_P2;Temp;Humidity;BMP_temperature;BMP_pressure;BME280_temperature;BME280_humidity;BME280_pressure;Samples;Min_cycle;Max_cycle;Signal;HPM_P1;HPM_P2
2021/11/03 00:00:06;;;;;;;1.83;1.73;;;;;;;2.43;100.00;94599.72;1026857;28;20034;-65
2021/11/03 00:00:38;;;;;;;1.84;1.50;;;;;;;2.42;100.00;94598.16;1021619;29;20023;-65
2021/11/03 00:01:11;;;;;;;1.48;1.36;;;;;;;2.44;100.00;94601.28;1030974;28;20511;-66
2021/11/03 00:01:41;;;;;;;1.82;1.60;;;;;;;2.47;100.00;94603.38;1027644;28;20026;-63
2021/11/03 00:02:12;;;;;;;2.58;1.75;;;;;;;2.47;100.00;94593.03;1022742;29;20511;-65
2021/11/03 00:02:42;;;;;;;2.25;1.90;;;;;;;2.44;100.00;94590.91;1020198;28;20026;-66
2021/11/03 00:03:13;;;;;;;3.13;1.45;;;;;;;2.40;100.00;94584.66;1022468;29;20020;-67
2021/11/03 00:03:43;;;;;;;2.03;1.50;;;;;;;2.47;100.00;94595.63;1022587;29;20106;-67
2021/11/03 00:04:14;;;;;;;2.65;1.90;;;;;;;2.49;100.00;94600.56;1023051;28;20130;-66
2021/11/03 00:04:44;;;;;;;3.17;1.80;;;;;;;2.49;100.00;94601.34;1026465;28;20058;-69
2021/11/03 00:05:15;;;;;;;2.80;1.80;;;;;;;2.51;100.00;94599.28;1018916;29;20065;-68
2021/11/03 00:05:46;;;;;;;2.67;1.83;;;;;;;2.51;100.00;94594.09;1021699;28;20027;-67
2021/11/03 00:06:17;;;;;;;2.25;1.75;;;;;;;2.48;100.00;94584.25;1026491;28;20019;-68
2021/11/03 00:06:47;;;;;;;1.58;1.20;;;;;;;2.53;100.00;94599.06;1019124;29;20026;-68
2021/11/03 00:07:18;;;;;;;3.35;1.30;;;;;;;2.52;100.00;94594.91;1022377;28;20059;-67
2021/11/03 00:07:48;;;;;;;2.28;1.63;;;;;;;2.51;100.00;94594.09;1018637;29;20426;-67
2021/11/03 00:08:21;;;;;;;1.65;1.42;;;;;;;2.44;100.00;94575.38;1023079;29;20038;-68
2021/11/03 00:08:52;;;;;;;4.93;2.22;;;;;;;2.41;100.00;94575.84;1022665;29;20045;-67
2021/11/03 00:09:22;;;;;;;2.28;1.40;;;;;;;2.49;100.00;94585.03;1024266;28;20793;-67
2021/11/03 00:09:53;;;;;;;3.05;1.50;;;;;;;2.47;100.00;94590.44;1018788;29;20073;-67
2021/11/03 00:10:23;;;;;;;1.92;1.65;;;;;;;2.43;100.00;94586.78;1018879;29;20024;-66
2021/11/03 00:10:54;;;;;;;1.38;1.27;;;;;;;2.42;100.00;94581.84;1015358;29;20020;-67
2021/11/03 00:11:25;;;;;;;2.50;1.40;;;;;;;2.38;100.00;94580.72;1026572;28;20030;-67
2021/11/03 00:11:55;;;;;;;3.20;1.58;;;;;;;2.41;100.00;94588.81;1022601;29;20015;-65
2021/11/03 00:12:26;;;;;;;1.90;1.70;;;;;;;2.40;100.00;94582.06;1027035;28;20031;-67
2021/11/03 00:12:57;;;;;;;1.85;1.45;;;;;;;2.38;100.00;94591.88;1018545;29;20023;-67
2021/11/03 00:13:27;;;;;;;1.84;1.30;;;;;;;2.38;100.00;94586.69;1026766;28;20027;-66
2021/11/03 00:13:58;;;;;;;2.65;1.73;;;;;;;2.35;100.00;94585.38;1026504;28;20030;-68
2021/11/03 00:14:28;;;;;;;2.08;1.55;;;;;;;2.34;100.00;94583.78;1026537;28;20490;-66
2021/11/03 00:14:59;;;;;;;3.35;1.58;;;;;;;2.26;100.00;94579.03;1030881;28;20038;-68
2021/11/03 00:15:29;;;;;;;2.70;1.60;;;;;;;2.34;100.00;94588.97;1018000;29;20079;-67
2021/11/03 00:16:00;;;;;;;4.13;2.42;;;;;;;2.30;100.00;94582.72;1021953;28;20019;-67
2021/11/03 00:16:30;;;;;;;2.80;1.50;;;;;;;2.28;100.00;94584.78;1022880;29;20022;-67
2021/11/03 00:17:01;;;;;;;2.97;1.60;;;;;;;2.29;100.00;94586.34;1013941;29;20020;-69
2021/11/03 00:17:31;;;;;;;3.90;1.58;;;;;;;2.30;100.00;94589.69;1014305;29;20020;-70
2021/11/03 00:18:02;;;;;;;1.70;1.60;;;;;;;2.26;100.00;94584.22;1022843;28;20059;-66
2021/11/03 00:18:32;;;;;;;2.00;1.60;;;;;;;2.28;100.00;94581.38;1027118;28;20030;-67
2021/11/03 00:19:03;;;;;;;2.70;1.77;;;;;;;2.16;100.00;94562.59;1023236;29;20054;-67
2021/11/03 00:19:33;;;;;;;1.77;1.60;;;;;;;2.24;100.00;94572.53;1022367;29;20020;-67
2021/11/03 00:20:05;;;;;;;2.03;1.73;;;;;;;2.24;100.00;94585.47;1022539;29;20020;-66
2021/11/03 00:20:36;;;;;;;1.62;1.52;;;;;;;2.14;100.00;94565.41;1023216;28;20023;-67
2021/11/03 00:21:07;;;;;;;1.85;1.75;;;;;;;2.18;100.00;94570.91;1014464;29;20118;-67
2021/11/03 00:21:37;;;;;;;3.38;1.60;;;;;;;2.15;100.00;94567.00;1014739;29;20035;-71
2021/11/03 00:22:08;;;;;;;2.33;1.67;;;;;;;2.15;100.00;94571.38;1014788;29;20024;-67
2021/11/03 00:22:38;;;;;;;2.70;1.90;;;;;;;2.10;100.00;94564.34;1014863;29;20020;-67
2021/11/03 00:23:09;;;;;;;3.60;1.80;;;;;;;2.07;100.00;94559.63;1014893;29;20032;-67
2021/11/03 00:23:39;;;;;;;1.67;1.58;;;;;;;2.11;100.00;94565.91;1022433;29;20070;-68
2021/11/03 00:24:10;;;;;;;2.45;2.00;;;;;;;2.09;100.00;94571.31;1022670;28;20031;-70
2021/11/03 00:24:41;;;;;;;1.90;1.70;;;;;;;2.08;100.00;94564.59;1023635;28;20027;-67
2021/11/03 00:25:12;;;;;;;2.64;1.62;;;;;;;2.06;100.00;94561.44;1030958;28;20022;-67
2021/11/03 00:25:45;;;;;;;2.92;1.88;;;;;;;2.03;100.00;94561.91;1030384;28;20397;-67
2021/11/03 00:26:16;;;;;;;3.84;1.74;;;;;;;2.01;100.00;94558.81;1034306;28;20093;-67
2021/11/03 00:26:46;;;;;;;1.98;1.75;;;;;;;1.99;100.00;94560.81;1030257;28;20023;-67
2021/11/03 00:27:17;;;;;;;3.47;1.75;;;;;;;2.00;100.00;94564.97;1035019;28;20045;-67
2021/11/03 00:27:47;;;;;;;2.70;1.95;;;;;;;1.97;100.00;94557.69;1034691;28;20064;-70
2021/11/03 00:28:19;;;;;;;2.65;1.98;;;;;;;1.86;100.00;94540.47;1034465;28;20070;-67
2021/11/03 00:28:49;;;;;;;3.28;1.90;;;;;;;1.86;100.00;94548.22;1026751;28;20069;-68
2021/11/03 00:29:20;;;;;;;2.58;2.00;;;;;;;1.97;100.00;94562.84;1028314;28;20168;-71
2021/11/03 00:29:50;;;;;;;5.43;2.05;;;;;;;1.95;100.00;94557.16;1030182;28;20425;-67
2021/11/03 00:30:21;;;;;;;2.78;1.83;;;;;;;1.87;100.00;94547.19;1029939;28;20026;-67
2021/11/03 00:30:54;;;;;;;3.85;1.98;;;;;;;1.85;100.00;94538.91;1034587;28;20017;-69
2021/11/03 00:31:24;;;;;;;2.98;1.84;;;;;;;1.93;100.00;94553.25;1022073;28;20069;-67
2021/11/03 00:31:55;;;;;;;3.72;1.95;;;;;;;1.93;100.00;94555.81;1020905;29;20026;-66
2021/11/03 00:32:25;;;;;;;4.97;1.73;;;;;;;1.92;100.00;94549.88;1021917;28;20034;-69
2021/11/03 00:32:56;;;;;;;5.25;1.98;;;;;;;1.82;100.00;94524.66;1027304;28;20025;-67
2021/11/03 00:33:27;;;;;;;2.78;2.05;;;;;;;1.82;100.00;94534.22;1026386;28;20023;-67
2021/11/03 00:33:58;;;;;;;3.32;1.96;;;;;;;1.89;100.00;94540.00;1026799;28;20011;-66
2021/11/03 00:34:28;;;;;;;2.92;1.95;;;;;;;1.73;100.00;94513.13;1026392;28;20027;-67
2021/11/03 00:34:59;;;;;;;1.95;1.55;;;;;;;1.85;100.00;94541.50;1030845;28;20735;-68
2021/11/03 00:35:30;;;;;;;2.03;1.63;;;;;;;1.74;100.00;94514.69;1022538;28;20478;-69
2021/11/03 00:36:00;;;;;;;1.85;1.63;;;;;;;1.74;100.00;94517.28;1021100;28;20390;-67
2021/11/03 00:36:31;;;;;;;3.33;1.80;;;;;;;1.73;100.00;94525.28;1020456;29;20028;-67
2021/11/03 00:37:01;;;;;;;4.80;2.03;;;;;;;1.80;100.00;94523.31;1027040;28;20023;-67
2021/11/03 00:37:32;;;;;;;5.88;1.90;;;;;;;1.82;100.00;94539.38;1022394;29;20015;-68
2021/11/03 00:38:02;;;;;;;2.85;2.38;;;;;;;1.78;100.00;94530.53;1022737;29;20031;-68
2021/11/03 00:38:33;;;;;;;4.03;2.20;;;;;;;1.77;100.00;94536.72;1022638;29;20026;-66
2021/11/03 00:39:03;;;;;;;3.80;1.80;;;;;;;1.78;100.00;94533.91;1026655;28;20069;-68
2021/11/03 00:39:34;;;;;;;8.75;2.10;;;;;;;1.75;100.00;94533.59;1031020;28;20026;-67
2021/11/03 00:40:07;;;;;;;3.00;2.14;;;;;;;1.72;100.00;94540.03;1026248;28;20030;-66
2021/11/03 00:40:38;;;;;;;4.76;2.28;;;;;;;1.72;100.00;94539.25;1026932;28;20034;-67
2021/11/03 00:41:08;;;;;;;2.28;2.00;;;;;;;1.69;100.00;94537.91;1026842;28;20030;-68
2021/11/03 00:41:39;;;;;;;2.15;1.95;;;;;;;1.64;100.00;94530.88;1023324;28;20023;-68
2021/11/03 00:42:09;;;;;;;4.53;1.92;;;;;;;1.65;100.00;94539.41;1027452;28;20585;-66
2021/11/03 00:42:40;;;;;;;7.43;2.30;;;;;;;1.61;100.00;94527.94;1023146;28;20379;-69
2021/11/03 00:43:10;;;;;;;8.20;1.92;;;;;;;1.65;100.00;94540.19;1018952;29;20061;-67
2021/11/03 00:43:40;;;;;;;4.45;2.35;;;;;;;1.64;100.00;94541.22;1018936;29;20419;-67
2021/11/03 00:44:11;;;;;;;3.28;2.08;;;;;;;1.65;100.00;94539.41;1021822;28;20031;-67
2021/11/03 00:44:41;;;;;;;5.05;2.30;;;;;;;1.65;100.00;94536.81;1029640;28;20085;-67
2021/11/03 00:45:12;;;;;;;4.80;2.10;;;;;;;1.64;100.00;94538.63;1031088;28;20030;-68
2021/11/03 00:45:42;;;;;;;4.20;1.98;;;;;;;1.63;100.00;94537.03;1025643;28;20035;-67
2021/11/03 00:46:13;;;;;;;10.68;2.58;;;;;;;1.54;100.00;94520.38;1026707;28;20026;-70
2021/11/03 00:46:43;;;;;;;2.05;1.90;;;;;;;1.63;100.00;94541.44;1026634;28;20050;-65
2021/11/03 00:47:14;;;;;;;3.70;2.28;;;;;;;1.61;100.00;94536.50;1029967;28;20033;-69
2021/11/03 00:47:44;;;;;;;3.08;2.03;;;;;;;1.62;100.00;94532.13;1035099;28;20037;-67
2021/11/03 00:48:16;;;;;;;3.15;2.05;;;;;;;1.54;100.00;94525.53;1034606;28;20117;-67
2021/11/03 00:48:47;;;;;;;3.66;2.70;;;;;;;1.58;100.00;94533.59;1018554;29;20036;-66
2021/11/03 00:49:18;;;;;;;2.60;2.40;;;;;;;1.58;100.00;94536.19;1015323;29;20519;-66
2021/11/03 00:49:48;;;;;;;2.42;2.13;;;;;;;1.57;100.00;94532.81;1019137;29;20095;-67
2021/11/03 00:50:19;;;;;;;3.85;2.30;;;;;;;1.52;100.00;94530.16;1024534;28;20031;-71
2021/11/03 00:50:50;;;;;;;3.52;2.56;;;;;;;1.54;100.00;94532.50;1022483;29;20052;-68
2021/11/03 00:51:20;;;;;;;2.95;2.15;;;;;;;1.46;100.00;94525.13;1014807;29;20111;-66
2021/11/03 00:51:51;;;;;;;3.55;2.10;;;;;;;1.51;100.00;94532.97;1023301;28;20031;-67
2021/11/03 00:52:21;;;;;;;2.75;2.10;;;;;;;1.43;100.00;94528.97;1025403;28;20674;-67
2021/11/03 00:52:52;;;;;;;2.30;2.10;;;;;;;1.47;100.00;94537.81;1027466;28;20405;-67
2021/11/03 00:53:22;;;;;;;3.33;2.42;;;;;;;1.46;100.00;94545.81;1022954;29;20031;-68
2021/11/03 00:53:52;;;;;;;6.13;2.53;;;;;;;1.44;100.00;94546.03;1023970;28;20039;-67
2021/11/03 00:54:23;;;;;;;2.83;2.33;;;;;;;1.41;100.00;94544.72;1021054;28;20050;-66
2021/11/03 00:54:53;;;;;;;4.20;2.25;;;;;;;1.40;100.00;94547.53;1027087;28;20034;-66
2021/11/03 00:55:24;;;;;;;4.15;2.72;;;;;;;1.40;100.00;94552.69;1026107;28;20031;-66
2021/11/03 00:55:55;;;;;;;3.95;2.65;;;;;;;1.38;100.00;94549.59;1023814;28;20220;-68
2021/11/03 00:56:25;;;;;;;2.42;2.22;;;;;;;1.36;100.00;94554.97;1028015;28;20501;-67
2021/11/03 00:56:55;;;;;;;3.03;2.45;;;;;;;1.36;100.00;94552.38;1026575;28;20425;-67
2021/11/03 00:57:26;;;;;;;3.80;2.30;;;;;;;1.36;100.00;94552.38;1032118;28;20084;-69
2021/11/03 00:57:56;;;;;;;2.55;2.33;;;;;;;1.34;100.00;94553.63;1033015;28;20021;-67
2021/11/03 00:58:27;;;;;;;4.15;2.72;;;;;;;1.34;100.00;94556.22;1029695;28;20016;-67
2021/11/03 00:58:57;;;;;;;2.47;2.25;;;;;;;1.33;100.00;94546.91;1022807;29;20027;-67
2021/11/03 00:59:28;;;;;;;2.70;2.28;;;;;;;1.32;100.00;94553.88;1022628;28;20037;-66
2021/11/03 01:00:01;;;;;;;2.80;2.50;;;;;;;1.24;100.00;94543.94;1027226;28;20372;-69
2021/11/03 01:00:32;;;;;;;6.60;2.64;;;;;;;1.30;100.00;94552.53;1026905;28;20014;-67
2021/11/03 01:01:03;;;;;;;4.78;2.52;;;;;;;1.30;100.00;94557.69;1025874;28;20062;-66
2021/11/03 01:01:34;;;;;;;6.00;2.85;;;;;;;1.27;100.00;94553.78;1023242;29;20384;-67
2021/11/03 01:02:04;;;;;;;2.95;2.50;;;;;;;1.25;100.00;94549.88;1023316;28;20059;-68
2021/11/03 01:02:35;;;;;;;2.90;2.45;;;;;;;1.25;100.00;94552.47;1022629;28;20027;-70
2021/11/03 01:03:05;;;;;;;3.75;2.40;;;;;;;1.23;100.00;94549.31;1029027;28;20031;-65
2021/11/03 01:03:36;;;;;;;3.63;2.42;;;;;;;1.19;100.00;94554.16;1022463;29;20079;-67
2021/11/03 01:04:06;;;;;;;3.72;3.00;;;;;;;1.18;100.00;94550.81;1019250;29;20024;-69
2021/11/03 01:04:37;;;;;;;3.13;2.70;;;;;;;1.15;100.00;94551.28;1022832;28;20031;-67
2021/11/03 01:05:08;;;;;;;2.80;2.53;;;;;;;1.10;100.00;94543.41;1034815;28;20038;-66
2021/11/03 01:05:38;;;;;;;3.00;2.70;;;;;;;1.11;100.00;94557.94;1026363;28;20098;-68
2021/11/03 01:06:09;;;;;;;4.13;2.47;;;;;;;1.08;100.00;94558.38;1030354;28;20061;-69
2021/11/03 01:06:39;;;;;;;6.07;2.90;;;;;;;1.03;100.00;94542.00;1026785;28;20027;-67
2021/11/03 01:07:10;;;;;;;5.85;2.60;;;;;;;1.04;100.00;94552.13;1027108;28;20015;-67
2021/11/03 01:07:41;;;;;;;2.95;2.50;;;;;;;1.04;100.00;94554.72;1022480;28;20027;-67
2021/11/03 01:08:12;;;;;;;11.42;3.24;;;;;;;1.03;100.00;94545.38;1023158;28;20042;-67
2021/11/03 01:08:43;;;;;;;3.60;2.76;;;;;;;0.99;100.00;94552.03;1026265;28;20015;-66
2021/11/03 01:09:13;;;;;;;3.58;2.67;;;;;;;1.00;100.00;94552.78;1021279;28;20035;-67
2021/11/03 01:09:44;;;;;;;3.55;2.45;;;;;;;0.98;100.00;94553.03;1029539;28;20666;-66
2021/11/03 01:10:17;;;;;;;4.53;2.78;;;;;;;0.97;100.00;94554.03;1026842;28;20026;-68
2021/11/03 01:10:49;;;;;;;3.60;2.76;;;;;;;0.93;100.00;94548.56;1022583;29;20038;-68
2021/11/03 01:11:20;;;;;;;4.74;2.96;;;;;;;0.93;100.00;94556.31;1027901;28;20070;-67
2021/11/03 01:11:51;;;;;;;3.88;3.05;;;;;;;0.91;100.00;94549.81;1030528;28;20026;-66
2021/11/03 01:12:21;;;;;;;3.78;2.68;;;;;;;0.92;100.00;94556.53;1027445;28;20019;-67
2021/11/03 01:12:52;;;;;;;4.05;2.88;;;;;;;0.84;100.00;94544.00;1030179;28;20102;-67
2021/11/03 01:13:23;;;;;;;2.92;2.50;;;;;;;0.88;100.00;94555.44;1025825;28;20011;-68
2021/11/03 01:13:54;;;;;;;2.82;2.42;;;;;;;0.88;100.00;94552.88;1019356;29;20406;-67
2021/11/03 01:14:25;;;;;;;3.28;2.80;;;;;;;0.87;100.00;94553.84;1018968;29;20031;-68
2021/11/03 01:14:55;;;;;;;4.68;3.00;;;;;;;0.88;100.00;94539.94;1021020;29;20016;-70
2021/11/03 01:15:26;;;;;;;4.45;2.92;;;;;;;0.88;100.00;94550.28;1026474;28;20055;-66
2021/11/03 01:15:59;;;;;;;4.95;3.22;;;;;;;0.88;100.00;94545.13;1035914;28;20091;-67
2021/11/03 01:16:30;;;;;;;3.30;3.00;;;;;;;0.89;100.00;94546.69;1032108;28;20069;-67
2021/11/03 01:17:00;;;;;;;3.72;2.95;;;;;;;0.87;100.00;94548.69;1030346;28;20485;-68
2021/11/03 01:17:31;;;;;;;3.72;3.17;;;;;;;0.90;100.00;94545.66;1026601;28;20023;-67
2021/11/03 01:18:02;;;;;;;5.38;3.38;;;;;;;0.86;100.00;94539.38;1023760;28;20131;-66
2021/11/03 01:18:32;;;;;;;3.70;2.88;;;;;;;0.88;100.00;94545.91;1026686;28;20086;-67
2021/11/03 01:19:03;;;;;;;3.08;2.78;;;;;;;0.87;100.00;94538.38;1023102;29;20027;-68
2021/11/03 01:19:36;;;;;;;3.10;2.80;;;;;;;0.85;100.00;94545.56;1020502;29;20020;-66
2021/11/03 01:20:08;;;;;;;3.17;2.88;;;;;;;0.84;100.00;94541.41;1024252;28;20030;-68
2021/11/03 01:20:39;;;;;;;3.50;3.00;;;;;;;0.83;100.00;94538.03;1030995;28;20030;-68
2021/11/03 01:21:09;;;;;;;4.47;3.15;;;;;;;0.84;100.00;94544.00;1027819;28;20030;-67
2021/11/03 01:21:40;;;;;;;5.25;3.10;;;;;;;0.75;100.00;94525.53;1026325;28;20047;-67
2021/11/03 01:22:10;;;;;;;4.88;3.33;;;;;;;0.81;100.00;94541.91;1022973;29;20035;-67
2021/11/03 01:22:41;;;;;;;4.47;3.13;;;;;;;0.77;100.00;94533.03;1022875;28;20054;-69
2021/11/03 01:23:11;;;;;;;3.08;2.80;;;;;;;0.76;100.00;94542.56;1015314;29;20119;-67
2021/11/03 01:23:42;;;;;;;4.47;3.08;;;;;;;0.75;100.00;94545.41;1014710;29;20040;-67
2021/11/03 01:24:12;;;;;;;5.32;3.30;;;;;;;0.75;100.00;94542.81;1014759;29;20056;-67
2021/11/03 01:24:42;;;;;;;3.67;3.17;;;;;;;0.72;100.00;94545.84;1025409;28;21003;-67
2021/11/03 01:25:13;;;;;;;4.43;3.38;;;;;;;0.70;100.00;94536.56;1031837;28;20584;-67
2021/11/03 01:25:44;;;;;;;4.43;3.70;;;;;;;0.69;100.00;94544.50;1034121;28;20028;-67
2021/11/03 01:26:14;;;;;;;3.42;2.97;;;;;;;0.69;100.00;94545.28;1038688;28;20075;-68
2021/11/03 01:26:45;;;;;;;3.63;3.28;;;;;;;0.68;100.00;94545.53;1030516;28;20469;-69
2021/11/03 01:27:15;;;;;;;4.57;3.55;;;;;;;0.70;100.00;94541.72;1022937;29;20030;-66
2021/11/03 01:27:46;;;;;;;3.92;3.55;;;;;;;0.70;100.00;94541.72;1018738;29;20510;-67
2021/11/03 01:28:17;;;;;;;7.47;4.63;;;;;;;0.72;100.00;94538.09;1018227;29;20032;-68
2021/11/03 01:28:47;;;;;;;5.82;3.36;;;;;;;0.70;100.00;94536.56;1015632;29;20055;-66
2021/11/03 01:29:18;;;;;;;7.90;3.92;;;;;;;0.70;100.00;94539.13;1018733;29;20035;-67
2021/11/03 01:29:48;;;;;;;4.68;3.50;;;;;;;0.72;100.00;94535.53;1015678;29;20039;-67
2021/11/03 01:30:20;;;;;;;3.58;3.28;;;;;;;0.69;100.00;94531.59;1021321;28;20102;-66
2021/11/03 01:30:50;;;;;;;4.82;3.28;;;;;;;0.74;100.00;94538.66;1022742;29;20015;-68
2021/11/03 01:31:21;;;;;;;4.47;3.10;;;;;;;0.75;100.00;94537.66;1019442;28;20031;-68
2021/11/03 01:31:51;;;;;;;4.60;3.03;;;;;;;0.77;100.00;94538.19;1022324;28;20027;-70
2021/11/03 01:32:22;;;;;;;7.78;4.00;;;;;;;0.66;100.00;94517.34;1022679;28;20078;-67
2021/11/03 01:32:53;;;;;;;9.93;4.03;;;;;;;0.67;100.00;94518.94;1019190;28;20034;-67
2021/11/03 01:33:24;;;;;;;4.84;3.10;;;;;;;0.78;100.00;94537.97;1026646;28;20019;-67
2021/11/03 01:33:55;;;;;;;5.40;3.25;;;;;;;0.76;100.00;94534.81;1030472;28;20026;-67
2021/11/03 01:34:26;;;;;;;2.90;2.70;;;;;;;0.75;100.00;94535.84;1030880;28;20695;-67
2021/11/03 01:34:56;;;;;;;3.45;3.13;;;;;;;0.75;100.00;94530.69;1029892;28;20018;-67
2021/11/03 01:35:27;;;;;;;3.90;3.20;;;;;;;0.69;100.00;94524.63;1028800;28;20089;-67
2021/11/03 01:35:57;;;;;;;4.30;3.08;;;;;;;0.78;100.00;94530.22;1020250;28;20020;-67
2021/11/03 01:36:28;;;;;;;4.13;3.38;;;;;;;0.69;100.00;94522.06;1026568;28;20066;-67
2021/11/03 01:36:58;;;;;;;3.60;3.08;;;;;;;0.78;100.00;94529.44;1022763;29;20557;-67
2021/11/03 01:37:29;;;;;;;3.67;2.88;;;;;;;0.77;100.00;94527.84;1018517;29;20035;-66
2021/11/03 01:37:59;;;;;;;3.05;2.70;;;;;;;0.73;100.00;94519.78;1018672;29;20027;-68
2021/11/03 01:38:29;;;;;;;4.60;3.30;;;;;;;0.76;100.00;94532.25;1025062;28;20023;-68
2021/11/03 01:39:00;;;;;;;3.22;2.92;;;;;;;0.74;100.00;94515.41;1026844;28;20678;-66
2021/11/03 01:39:31;;;;;;;4.68;3.72;;;;;;;0.74;100.00;94526.53;1019652;29;20028;-68
2021/11/03 01:40:03;;;;;;;5.25;3.33;;;;;;;0.72;100.00;94514.88;1021545;28;20024;-68
2021/11/03 01:40:35;;;;;;;5.48;3.00;;;;;;;0.69;100.00;94516.13;1025436;28;20029;-67
2021/11/03 01:41:05;;;;;;;4.00;3.00;;;;;;;0.67;100.00;94518.94;1023743;29;20397;-66
2021/11/03 01:41:36;;;;;;;3.58;3.10;;;;;;;0.70;100.00;94520.25;1023851;28;20067;-67
2021/11/03 01:42:06;;;;;;;3.63;3.00;;;;;;;0.70;100.00;94517.66;1023739;28;20031;-66
2021/11/03 01:42:37;;;;;;;4.13;3.40;;;;;;;0.76;100.00;94526.31;1019989;28;20023;-67
2021/11/03 01:43:08;;;;;;;3.78;3.00;;;;;;;0.76;100.00;94532.25;1019406;29;20055;-67
2021/11/03 01:43:49;;;;;;;5.13;3.47;;;;;;;0.75;100.00;94524.75;1015400;29;20024;-67
2021/11/03 01:44:20;;;;;;;4.74;3.66;;;;;;;0.65;100.00;94518.38;1023197;29;20031;-67
2021/11/03 01:44:50;;;;;;;9.80;3.60;;;;;;;0.74;100.00;94531.72;1020935;29;20621;-68
2021/11/03 01:45:23;;;;;;;4.15;3.50;;;;;;;0.64;100.00;94514.22;1022030;28;20402;-69
2021/11/03 01:46:16;;;;;;;12.70;3.92;;;;;;;0.70;100.00;94517.66;1018885;29;20022;-67
2021/11/03 01:47:08;;;;;;;5.46;3.48;;;;;;;0.69;100.00;94527.22;1017546;29;20043;-67
2021/11/03 01:47:49;;;;;;;6.70;3.64;;;;;;;0.61;100.00;94519.84;1023590;28;20054;-68
2021/11/03 01:48:20;;;;;;;8.00;3.68;;;;;;;0.55;100.00;94515.59;1027278;28;20034;-66
2021/11/03 01:48:58;;;;;;;4.82;3.25;;;;;;;0.58;100.00;94514.38;1030666;28;20544;-67
2021/11/03 01:49:29;;;;;;;4.52;3.08;;;;;;;0.51;100.00;94504.19;1023398;29;20499;-67
2021/11/03 01:50:00;;;;;;;7.70;3.44;;;;;;;0.58;100.00;94522.88;1031184;28;20552;-69
2021/11/03 01:51:09;;;;;;;4.62;3.82;;;;;;;0.57;100.00;94513.59;1027256;28;20014;-66
2021/11/03 01:51:44;;;;;;;4.06;3.26;;;;;;;0.47;100.00;94490.19;1022757;29;20054;-69
2021/11/03 01:52:15;;;;;;;4.50;4.00;;;;;;;0.56;100.00;94512.00;1029556;28;20019;-70
2021/11/03 01:52:46;;;;;;;7.20;3.92;;;;;;;0.55;100.00;94509.66;1023039;29;20113;-67
2021/11/03 01:53:20;;;;;;;6.44;3.98;;;;;;;0.52;100.00;94504.97;1019257;29;20075;-66
2021/11/03 01:53:50;;;;;;;5.88;4.38;;;;;;;0.51;100.00;94498.25;1022769;29;20015;-67
2021/11/03 01:54:28;;;;;;;6.03;4.00;;;;;;;0.57;100.00;94511.00;1019109;29;20016;-67
2021/11/03 01:54:59;;;;;;;5.00;3.88;;;;;;;0.52;100.00;94495.41;1023393;29;20054;-68
2021/11/03 01:55:29;;;;;;;7.20;4.43;;;;;;;0.61;100.00;94511.34;1025648;28;20031;-70
2021/11/03 01:56:04;;;;;;;5.43;3.95;;;;;;;0.52;100.00;94498.00;1018425;29;20024;-67
2021/11/03 01:56:35;;;;;;;4.62;3.96;;;;;;;0.55;100.00;94500.13;1023058;29;20431;-67
2021/11/03 01:57:10;;;;;;;5.30;4.05;;;;;;;0.59;100.00;94503.81;1031217;28;20028;-66
2021/11/03 01:57:43;;;;;;;8.44;4.32;;;;;;;0.59;100.00;94495.28;1026602;28;20027;-68
2021/11/03 01:58:16;;;;;;;9.12;4.44;;;;;;;0.52;100.00;94486.91;1023092;29;20514;-69
2021/11/03 01:58:56;;;;;;;7.12;4.58;;;;;;;0.53;100.00;94475.56;1023356;29;20027;-66
2021/11/03 01:59:32;;;;;;;5.45;3.65;;;;;;;0.52;100.00;94469.63;1022945;29;20074;-67
2021/11/03 02:00:11;;;;;;;6.76;4.18;;;;;;;0.65;100.00;94489.19;1023415;29;20045;-67
2021/11/03 02:00:43;;;;;;;5.32;4.58;;;;;;;0.59;100.00;94470.25;1018634;29;20019;-68
2021/11/03 02:01:13;;;;;;;6.56;4.76;;;;;;;0.69;100.00;94485.13;1027072;28;20035;-66
2021/11/03 02:01:44;;;;;;;6.72;4.38;;;;;;;0.67;100.00;94476.81;1027120;28;20777;-69
2021/11/03 02:02:17;;;;;;;5.64;4.70;;;;;;;0.70;100.00;94487.50;1023316;29;20030;-66
2021/11/03 02:02:47;;;;;;;7.64;5.00;;;;;;;0.67;100.00;94475.06;1019474;29;20066;-67
2021/11/03 02:03:19;;;;;;;6.13;4.90;;;;;;;0.66;100.00;94476.06;1023795;28;20077;-67
2021/11/03 02:03:50;;;;;;;7.20;4.88;;;;;;;0.69;100.00;94482.56;1019357;29;20030;-67
2021/11/03 02:04:20;;;;;;;4.72;4.22;;;;;;;0.68;100.00;94474.03;1023292;28;20046;-69
2021/11/03 02:04:51;;;;;;;5.63;4.45;;;;;;;0.68;100.00;94479.19;1031242;28;20518;-67
2021/11/03 02:05:21;;;;;;;5.55;4.70;;;;;;;0.67;100.00;94479.41;1030511;28;20034;-66
2021/11/03 02:05:56;;;;;;;5.05;4.40;;;;;;;0.58;100.00;94463.53;1023006;29;20026;-68
2021/11/03 02:06:27;;;;;;;5.52;4.10;;;;;;;0.65;100.00;94474.50;1023420;28;20019;-68
2021/11/03 02:06:57;;;;;;;8.63;4.90;;;;;;;0.62;100.00;94463.84;1023498;29;20027;-68
2021/11/03 02:07:28;;;;;;;5.05;4.38;;;;;;;0.67;100.00;94469.09;1022950;29;20031;-66
2021/11/03 02:07:58;;;;;;;6.40;5.43;;;;;;;0.66;100.00;94472.69;1022959;29;20043;-68
2021/11/03 02:08:29;;;;;;;7.68;4.80;;;;;;;0.64;100.00;94467.78;1019391;29;20036;-67
2021/11/03 02:09:00;;;;;;;7.96;4.60;;;;;;;0.66;100.00;94470.88;1019066;29;20020;-66
2021/11/03 02:09:30;;;;;;;5.88;5.05;;;;;;;0.65;100.00;94468.56;1017494;29;20023;-66
2021/11/03 02:10:01;;;;;;;7.50;4.68;;;;;;;0.64;100.00;94462.63;1019366;29;20041;-68
2021/11/03 02:10:31;;;;;;;5.60;4.80;;;;;;;0.62;100.00;94463.84;1019317;28;20020;-67
2021/11/03 02:11:01;;;;;;;5.90;4.70;;;;;;;0.64;100.00;94472.16;1026989;28;20023;-67
2021/11/03 02:11:32;;;;;;;8.15;5.22;;;;;;;0.59;100.00;94457.34;1027049;28;20106;-67
2021/11/03 02:12:03;;;;;;;6.05;4.88;;;;;;;0.61;100.00;94460.50;1030939;28;20128;-66
2021/11/03 02:12:33;;;;;;;6.05;4.85;;;;;;;0.61;100.00;94457.91;1027111;28;20470;-66
2021/11/03 02:13:04;;;;;;;6.40;4.85;;;;;;;0.60;100.00;94461.47;1031155;28;20026;-66
2021/11/03 02:13:35;;;;;;;7.65;5.18;;;;;;;0.64;100.00;94464.41;1026946;28;20023;-70
2021/11/03 02:14:06;;;;;;;5.72;4.84;;;;;;;0.65;100.00;94466.75;1023359;29;20470;-67
2021/11/03 02:14:38;;;;;;;6.53;5.20;;;;;;;0.63;100.00;94458.44;1026528;28;20014;-67
2021/11/03 02:15:08;;;;;;;6.38;5.06;;;;;;;0.66;100.00;94459.78;1027429;28;20023;-68
2021/11/03 02:15:39;;;;;;;6.20;5.10;;;;;;;0.64;100.00;94447.13;1026247;28;20022;-66
2021/11/03 02:16:12;;;;;;;6.70;4.95;;;;;;;0.70;100.00;94455.72;1018473;29;20086;-67
2021/11/03 02:16:44;;;;;;;6.60;5.08;;;;;;;0.71;100.00;94457.31;1015752;29;20252;-66
2021/11/03 02:17:15;;;;;;;7.04;5.88;;;;;;;0.76;100.00;94456.59;1027023;28;20947;-70
2021/11/03 02:17:45;;;;;;;6.70;5.02;;;;;;;0.75;100.00;94458.41;1026341;28;20114;-67
2021/11/03 02:18:16;;;;;;;5.97;4.90;;;;;;;0.75;100.00;94463.56;1015382;29;20803;-67
2021/11/03 02:18:47;;;;;;;7.16;5.00;;;;;;;0.64;100.00;94441.19;1015139;29;20127;-68
2021/11/03 02:19:23;;;;;;;5.90;5.25;;;;;;;0.76;100.00;94459.97;1019436;29;20459;-67
2021/11/03 02:19:55;;;;;;;8.56;5.36;;;;;;;0.68;100.00;94448.22;1016159;29;20032;-67
2021/11/03 02:20:28;;;;;;;8.70;4.92;;;;;;;0.74;100.00;94450.88;1022862;29;20059;-67
2021/11/03 02:20:58;;;;;;;6.52;5.10;;;;;;;0.75;100.00;94452.47;1023369;29;20030;-68
2021/11/03 02:21:35;;;;;;;9.30;4.90;;;;;;;0.75;100.00;94455.81;1030147;28;20030;-68
2021/11/03 02:22:25;;;;;;;5.50;4.94;;;;;;;0.72;100.00;94447.75;1027384;28;20022;-67
2021/11/03 02:23:05;;;;;;;7.43;5.18;;;;;;;0.74;100.00;94446.53;1024051;28;20027;-67
2021/11/03 02:23:48;;;;;;;6.64;5.14;;;;;;;0.63;100.00;94427.47;1027381;28;20023;-67
2021/11/03 02:24:25;;;;;;;5.96;4.98;;;;;;;0.65;100.00;94428.03;1022884;29;20050;-68
2021/11/03 02:24:56;;;;;;;7.62;5.00;;;;;;;0.71;100.00;94439.25;1027096;28;20050;-66
2021/11/03 02:25:47;;;;;;;6.82;5.25;;;;;;;0.70;100.00;94438.47;1028964;28;20088;-67
2021/11/03 02:26:31;;;;;;;5.64;4.76;;;;;;;0.70;100.00;94443.63;1027069;28;20039;-69
2021/11/03 02:27:02;;;;;;;7.24;5.28;;;;;;;0.62;100.00;94433.66;1023529;28;20023;-67
2021/11/03 02:27:33;;;;;;;6.68;4.90;;;;;;;0.65;100.00;94438.34;1027410;28;20038;-69
2021/11/03 02:28:03;;;;;;;8.80;5.10;;;;;;;0.66;100.00;94442.50;1026597;28;20065;-68
2021/11/03 02:28:34;;;;;;;6.03;5.00;;;;;;;0.62;100.00;94443.97;1022833;28;20307;-67
2021/11/03 02:29:08;;;;;;;6.43;5.32;;;;;;;0.57;100.00;94435.34;1023409;29;20059;-66